createdAt,value
2017-09-05T00:01:14.546Z,98.30
2017-09-05T00:03:42.100Z,98.40
2017-09-05T00:06:09.620Z,98.50
2017-09-05T00:08:37.792Z,98.50
2017-09-05T00:11:10.980Z,98.50
2017-09-05T00:13:40.128Z,98.60
2017-09-05T00:19:09.708Z,99.20
2017-09-05T00:21:37.247Z,99.10
2017-09-05T00:24:04.835Z,99.70
2017-09-05T00:26:32.373Z,98.90
2017-09-05T00:29:00.100Z,98.90
2017-09-05T00:31:27.651Z,98.30
2017-09-05T00:33:55.160Z,98.90
2017-09-05T00:36:22.712Z,99.20
2017-09-05T00:38:50.301Z,99.50
2017-09-05T00:41:17.824Z,99.30
2017-09-05T00:43:45.396Z,99.50
2017-09-05T00:46:12.902Z,99.90
2017-09-05T00:48:40.564Z,99.80
2017-09-05T00:51:08.109Z,99.10
2017-09-05T00:53:35.662Z,98.80
2017-09-05T00:56:03.220Z,98.70
2017-09-05T00:58:30.841Z,98.80
2017-09-05T01:00:58.439Z,98.40
2017-09-05T01:03:25.969Z,98.70
2017-09-05T01:05:53.544Z,98.90
2017-09-05T01:08:21.070Z,99.10
2017-09-05T01:10:48.616Z,99.40
2017-09-05T01:13:16.353Z,99.60
2017-09-05T01:15:43.910Z,99.60
2017-09-05T01:18:11.457Z,99.50
2017-09-05T01:20:38.996Z,99.90
2017-09-05T01:23:06.565Z,99.90
2017-09-05T01:25:34.250Z,99.80
2017-09-05T01:28:01.819Z,99.80
2017-09-05T01:30:29.406Z,99.10
2017-09-05T01:32:56.931Z,98.50
2017-09-05T01:35:24.520Z,98.80
2017-09-05T01:37:52.096Z,98.50
2017-09-05T01:40:19.649Z,98.50
2017-09-05T01:42:47.242Z,98.50
2017-09-05T01:45:14.758Z,98.90
2017-09-05T01:47:42.280Z,99.10
2017-09-05T01:50:09.871Z,98.90
2017-09-05T01:52:37.485Z,98.70
2017-09-05T01:55:05.014Z,98.80
2017-09-05T01:57:32.727Z,98.10
2017-09-05T02:00:00.251Z,97.80
2017-09-05T02:02:27.784Z,97.90
2017-09-05T02:04:55.446Z,98.20
2017-09-05T02:07:23.004Z,98.50
2017-09-05T02:09:50.551Z,98.80
2017-09-05T02:12:18.103Z,98.60
2017-09-05T02:14:45.652Z,98.80
2017-09-05T02:17:13.205Z,98.90
2017-09-05T02:19:40.749Z,98.80
2017-09-05T02:22:08.306Z,98.80
2017-09-05T02:24:35.823Z,98.60
2017-09-05T02:27:03.379Z,98.50
2017-09-05T02:29:30.919Z,98.80
2017-09-05T02:31:58.440Z,98.70
2017-09-05T02:34:26.007Z,98.90
2017-09-05T02:36:53.531Z,99.20
2017-09-05T02:39:21.100Z,99.00
2017-09-05T02:41:48.613Z,98.80
2017-09-05T02:44:16.193Z,98.60
2017-09-05T02:46:43.755Z,98.70
2017-09-05T02:49:11.312Z,98.80
2017-09-05T02:51:38.859Z,98.50
2017-09-05T02:54:06.409Z,98.40
2017-09-05T02:56:33.996Z,98.20
2017-09-05T02:59:01.561Z,98.10
2017-09-05T03:01:29.089Z,97.90
2017-09-05T03:03:56.649Z,97.70
2017-09-05T03:06:24.164Z,97.50
2017-09-05T03:08:51.713Z,97.40
2017-09-05T03:11:19.227Z,97.50
2017-09-05T03:13:46.813Z,97.80
2017-09-05T03:16:14.368Z,98.20
2017-09-05T03:18:41.919Z,97.90
2017-09-05T03:21:09.459Z,98.10
2017-09-05T03:23:37.068Z,98.40
2017-09-05T03:26:04.670Z,97.70
2017-09-05T03:28:32.199Z,97.90
2017-09-05T03:30:59.794Z,97.50
2017-09-05T03:33:27.343Z,97.20
2017-09-05T03:35:54.872Z,97.30
2017-09-05T03:38:22.420Z,97.10
2017-09-05T03:40:50.006Z,97.10
2017-09-05T03:43:17.559Z,97.50
2017-09-05T03:45:45.135Z,96.90
2017-09-05T03:48:12.726Z,97.00
2017-09-05T03:50:40.264Z,97.10
2017-09-05T03:53:07.841Z,97.20
2017-09-05T03:55:35.380Z,97.40
2017-09-05T03:58:02.938Z,97.10
2017-09-05T04:00:30.456Z,97.40
2017-09-05T04:02:58.047Z,97.40
2017-09-05T04:05:25.567Z,97.60
2017-09-05T04:07:53.212Z,97.70
2017-09-05T04:10:20.780Z,97.80
2017-09-05T04:12:48.315Z,97.90
2017-09-05T04:15:15.893Z,98.20
2017-09-05T04:17:43.424Z,97.70
2017-09-05T04:20:10.980Z,97.80
2017-09-05T04:22:38.539Z,98.00
2017-09-05T04:25:06.208Z,98.10
2017-09-05T04:27:33.814Z,98.20
2017-09-05T04:30:01.462Z,98.50
2017-09-05T04:32:29.197Z,98.50
2017-09-05T04:34:56.739Z,98.40
2017-09-05T04:37:24.387Z,98.80
2017-09-05T04:39:51.939Z,98.10
2017-09-05T04:42:19.460Z,98.20
2017-09-05T04:44:47.030Z,99.00
2017-09-05T04:47:14.553Z,99.20
2017-09-05T04:49:42.120Z,99.30
2017-09-05T04:52:09.668Z,98.90
2017-09-05T04:54:37.227Z,99.00
2017-09-05T04:57:04.770Z,98.90
2017-09-05T04:59:32.291Z,99.10
2017-09-05T05:01:59.816Z,99.10
2017-09-05T05:04:27.475Z,99.30
2017-09-05T05:06:55.048Z,99.50
2017-09-05T05:09:22.571Z,99.30
2017-09-05T05:11:50.125Z,99.60
2017-09-05T05:14:17.835Z,99.50
2017-09-05T05:16:45.450Z,99.90
2017-09-05T05:19:12.967Z,99.90
2017-09-05T05:21:40.496Z,99.20
2017-09-05T05:24:08.046Z,99.60
2017-09-05T05:26:35.559Z,99.20
2017-09-05T05:29:03.230Z,99.40
2017-09-05T05:31:30.774Z,99.10
2017-09-05T05:33:58.310Z,99.00
2017-09-05T05:36:25.932Z,99.10
2017-09-05T05:38:53.469Z,98.80
2017-09-05T05:41:21.179Z,98.60
2017-09-05T05:43:48.748Z,98.60
2017-09-05T05:46:16.330Z,98.80
2017-09-05T05:48:43.869Z,98.80
2017-09-05T05:51:11.477Z,98.80
2017-09-05T05:53:39.081Z,98.70
2017-09-05T05:56:06.601Z,99.40
2017-09-05T05:58:34.240Z,98.80
2017-09-05T06:01:01.823Z,99.30
2017-09-05T06:03:29.411Z,98.90
2017-09-05T06:05:56.992Z,99.00
2017-09-05T06:08:24.512Z,99.00
2017-09-05T06:10:52.071Z,99.10
2017-09-05T06:13:19.606Z,99.10
2017-09-05T06:15:47.499Z,99.10
2017-09-05T06:18:15.138Z,99.50
2017-09-05T06:20:42.700Z,99.40
2017-09-05T06:23:10.265Z,99.10
2017-09-05T06:25:37.785Z,99.10
2017-09-05T06:28:05.401Z,99.30
2017-09-05T06:30:32.977Z,99.70
2017-09-05T06:33:00.622Z,99.90
2017-09-05T06:35:28.171Z,99.60
2017-09-05T06:37:55.737Z,99.90
2017-09-05T06:40:23.309Z,99.40
2017-09-05T06:42:50.854Z,99.50
2017-09-05T06:45:18.432Z,99.50
2017-09-05T06:47:46.016Z,99.50
2017-09-05T06:50:13.578Z,99.90
2017-09-05T06:52:41.145Z,99.90
2017-09-05T06:55:08.734Z,99.90
2017-09-05T06:57:36.272Z,99.90
2017-09-05T07:00:03.989Z,99.90
2017-09-05T07:02:31.603Z,99.90
2017-09-05T07:04:59.227Z,99.90
2017-09-05T07:07:28.355Z,99.90
2017-09-05T07:09:57.075Z,99.90
2017-09-05T07:12:24.826Z,99.90
2017-09-05T07:14:52.403Z,99.90
2017-09-05T07:17:20.018Z,99.90
2017-09-05T07:19:47.701Z,99.90
2017-09-05T07:22:15.342Z,99.90
2017-09-05T07:24:42.912Z,99.90
2017-09-05T07:27:10.546Z,99.90
2017-09-05T07:29:38.246Z,99.90
2017-09-05T07:32:05.793Z,99.90
2017-09-05T07:34:33.478Z,99.90
2017-09-05T07:37:01.086Z,99.90
2017-09-05T07:39:28.745Z,99.90
2017-09-05T07:41:56.400Z,99.90
2017-09-05T07:44:23.991Z,99.90
2017-09-05T07:46:51.513Z,99.90
2017-09-05T07:49:19.072Z,99.90
2017-09-05T07:51:46.646Z,99.90
2017-09-05T07:54:14.306Z,99.90
2017-09-05T07:56:42.008Z,99.90
2017-09-05T07:59:09.528Z,99.90
2017-09-05T08:01:37.251Z,99.90
2017-09-05T08:04:04.824Z,99.90
2017-09-05T08:06:32.381Z,99.90
2017-09-05T08:08:59.908Z,99.90
2017-09-05T08:11:27.531Z,99.90
2017-09-05T08:13:55.709Z,99.90
2017-09-05T08:16:23.272Z,99.90
2017-09-05T08:18:50.841Z,99.90
2017-09-05T08:21:18.435Z,99.90
2017-09-05T08:23:46.169Z,99.90
2017-09-05T08:26:13.706Z,99.90
2017-09-05T08:28:41.292Z,99.90
2017-09-05T08:31:08.871Z,99.90
2017-09-05T08:33:36.446Z,99.90
2017-09-05T08:36:04.220Z,99.90
2017-09-05T08:38:31.879Z,99.90
2017-09-05T08:40:59.499Z,99.90
2017-09-05T08:43:27.073Z,99.90
2017-09-05T08:45:54.603Z,99.90
2017-09-05T08:48:22.279Z,99.90
2017-09-05T08:50:49.821Z,99.90
2017-09-05T08:53:17.483Z,99.90
2017-09-05T08:55:45.042Z,99.90
2017-09-05T08:58:12.558Z,99.90
2017-09-05T09:00:41.889Z,99.90
2017-09-05T09:03:11.700Z,99.90
2017-09-05T09:05:39.609Z,99.90
2017-09-05T09:08:07.846Z,99.90
2017-09-05T09:10:35.387Z,99.90
2017-09-05T09:13:02.973Z,99.90
2017-09-05T09:15:30.597Z,99.90
2017-09-05T09:17:58.149Z,99.90
2017-09-05T09:20:25.869Z,99.90
2017-09-05T09:22:55.092Z,99.90
2017-09-05T09:25:22.668Z,99.90
2017-09-05T09:27:50.276Z,99.90
2017-09-05T09:30:17.824Z,99.90
2017-09-05T09:32:45.352Z,99.90
2017-09-05T09:35:12.950Z,99.90
2017-09-05T09:37:40.491Z,99.10
2017-09-05T09:40:08.008Z,98.70
2017-09-05T09:42:35.592Z,98.70
2017-09-05T09:45:03.317Z,99.00
2017-09-05T09:47:30.864Z,99.90
2017-09-05T09:49:58.511Z,99.90
2017-09-05T09:52:26.059Z,99.60
2017-09-05T09:54:53.570Z,99.20
2017-09-05T09:57:21.135Z,99.20
2017-09-05T09:59:48.644Z,99.30
2017-09-05T10:02:16.173Z,99.90
2017-09-05T10:04:43.728Z,98.80
2017-09-05T10:07:11.263Z,97.40
2017-09-05T10:09:38.784Z,99.20
2017-09-05T10:12:06.391Z,97.40
2017-09-05T10:14:33.900Z,98.30
2017-09-05T10:17:01.419Z,98.20
2017-09-05T10:19:28.968Z,97.40
2017-09-05T10:21:56.541Z,99.20
2017-09-05T10:24:24.113Z,97.70
2017-09-05T10:26:51.623Z,97.50
2017-09-05T10:29:19.132Z,96.30
2017-09-05T10:31:46.684Z,95.40
2017-09-05T10:34:14.225Z,95.50
2017-09-05T10:36:41.743Z,93.90
2017-09-05T10:39:09.290Z,94.60
2017-09-05T10:41:36.955Z,94.10
2017-09-05T10:44:04.477Z,92.90
2017-09-05T10:46:32.032Z,93.30
2017-09-05T10:48:59.556Z,93.20
2017-09-05T10:51:27.118Z,92.40
2017-09-05T10:53:54.711Z,91.90
2017-09-05T10:56:22.923Z,91.70
2017-09-05T10:58:50.465Z,91.90
2017-09-05T11:01:18.083Z,91.70
2017-09-05T11:03:45.686Z,91.60
2017-09-05T11:06:13.274Z,91.40
2017-09-05T11:08:40.913Z,92.40
2017-09-05T11:11:09.461Z,91.30
2017-09-05T11:13:37.547Z,91.40
2017-09-05T11:16:05.067Z,91.50
2017-09-05T11:18:32.596Z,92.50
2017-09-05T11:21:00.171Z,91.40
2017-09-05T11:23:27.701Z,91.30
2017-09-05T11:25:55.260Z,91.40
2017-09-05T11:28:23.482Z,91.50
2017-09-05T11:30:54.054Z,91.90
2017-09-05T11:33:21.812Z,92.00
2017-09-05T11:35:49.369Z,91.00
2017-09-05T11:38:16.931Z,90.10
2017-09-05T11:40:44.437Z,91.10
2017-09-05T11:43:12.025Z,90.50
2017-09-05T11:45:39.593Z,87.90
2017-09-05T11:48:07.208Z,86.60
2017-09-05T11:53:37.134Z,87.70
2017-09-05T11:56:12.269Z,84.90
2017-09-05T11:58:53.876Z,86.60
2017-09-05T12:01:23.204Z,82.60
2017-09-05T12:03:53.033Z,82.40
2017-09-05T12:06:20.552Z,81.20
2017-09-05T12:08:48.119Z,79.80
2017-09-05T12:11:15.865Z,83.50
2017-09-05T12:13:43.396Z,82.00
2017-09-05T12:16:11.014Z,80.70
2017-09-05T12:18:38.586Z,79.30
2017-09-05T12:21:06.895Z,78.40
2017-09-05T12:23:34.416Z,78.30
2017-09-05T12:26:01.984Z,78.80
2017-09-05T12:28:29.500Z,76.60
2017-09-05T12:30:57.021Z,80.90
2017-09-05T12:33:24.559Z,79.30
2017-09-05T12:35:52.106Z,80.10
2017-09-05T12:38:19.668Z,82.60
2017-09-05T12:40:47.180Z,83.20
2017-09-05T12:43:14.732Z,84.50
2017-09-05T12:45:42.323Z,81.70
2017-09-05T12:48:09.866Z,82.20
2017-09-05T12:50:37.416Z,83.20
2017-09-05T12:53:04.959Z,84.30
2017-09-05T12:55:32.521Z,84.30
2017-09-05T12:58:00.063Z,84.80
2017-09-05T13:00:27.577Z,83.30
2017-09-05T13:02:55.180Z,84.40
2017-09-05T13:05:22.688Z,81.20
2017-09-05T13:07:50.199Z,83.10
2017-09-05T13:10:17.778Z,81.90
2017-09-05T13:12:45.377Z,82.70
2017-09-05T13:15:12.948Z,82.20
2017-09-05T13:17:40.488Z,78.30
2017-09-05T13:20:08.005Z,82.90
2017-09-05T13:22:35.602Z,84.00
2017-09-05T13:25:03.123Z,83.40
2017-09-05T13:27:30.677Z,83.10
2017-09-05T13:29:58.248Z,83.20
2017-09-05T13:32:25.816Z,81.80
2017-09-05T13:34:53.362Z,84.60
2017-09-05T13:37:20.904Z,81.50
2017-09-05T13:39:48.451Z,84.30
2017-09-05T13:42:15.971Z,84.00
2017-09-05T13:44:43.535Z,84.30
2017-09-05T13:47:11.092Z,84.60
2017-09-05T13:49:38.604Z,86.40
2017-09-05T13:52:06.132Z,86.80
2017-09-05T13:54:33.683Z,82.60
2017-09-05T13:57:01.274Z,84.10
2017-09-05T13:59:28.756Z,84.30
2017-09-05T14:01:56.280Z,85.00
2017-09-05T14:04:23.898Z,84.20
2017-09-05T14:06:51.440Z,82.00
2017-09-05T14:09:18.952Z,84.30
2017-09-05T14:11:46.491Z,86.70
2017-09-05T14:14:14.004Z,82.60
2017-09-05T14:16:41.663Z,83.60
2017-09-05T14:19:09.168Z,80.90
2017-09-05T14:21:36.703Z,81.30
2017-09-05T14:24:04.220Z,81.70
2017-09-05T14:26:31.763Z,81.40
2017-09-05T14:28:59.282Z,82.40
2017-09-05T14:31:26.870Z,83.80
2017-09-05T14:33:54.415Z,83.40
2017-09-05T14:36:21.929Z,84.40
2017-09-05T14:38:49.492Z,84.20
2017-09-05T14:41:17.035Z,85.00
2017-09-05T14:43:44.552Z,82.20
2017-09-05T14:46:12.095Z,85.10
2017-09-05T14:48:39.809Z,85.70
2017-09-05T14:51:07.318Z,86.40
2017-09-05T14:53:34.839Z,85.60
2017-09-05T14:56:02.380Z,86.60
2017-09-05T14:58:29.884Z,85.70
2017-09-05T15:00:57.420Z,86.30
2017-09-05T15:03:24.939Z,82.70
2017-09-05T15:05:52.683Z,84.00
2017-09-05T15:08:20.217Z,84.80
2017-09-05T15:10:47.739Z,85.40
2017-09-05T15:13:15.276Z,86.60
2017-09-05T15:15:42.810Z,88.70
2017-09-05T15:18:10.320Z,89.70
2017-09-05T15:20:37.874Z,88.30
2017-09-05T15:23:05.383Z,89.90
2017-09-05T15:25:32.919Z,90.10
2017-09-05T15:28:00.433Z,90.20
2017-09-05T15:30:27.999Z,89.80
2017-09-05T15:32:55.508Z,90.70
2017-09-05T15:35:23.177Z,90.70
2017-09-05T15:37:50.710Z,90.70
2017-09-05T15:40:18.247Z,90.20
2017-09-05T15:42:45.791Z,89.30
2017-09-05T15:45:13.664Z,90.80
2017-09-05T15:47:41.262Z,90.80
2017-09-05T15:50:09.095Z,90.80
2017-09-05T15:52:36.659Z,91.00
2017-09-05T15:55:04.555Z,90.50
2017-09-05T15:57:32.349Z,89.90
2017-09-05T16:00:00.014Z,90.80
2017-09-05T16:02:27.515Z,91.00
2017-09-05T16:04:55.027Z,91.10
2017-09-05T16:07:22.575Z,91.10
2017-09-05T16:09:50.132Z,91.50
2017-09-05T16:12:17.688Z,90.70
2017-09-05T16:14:45.267Z,91.30
2017-09-05T16:17:12.994Z,91.50
2017-09-05T16:19:40.637Z,91.60
2017-09-05T16:22:08.226Z,92.60
2017-09-05T16:24:35.881Z,92.60
2017-09-05T16:27:04.336Z,93.10
2017-09-05T16:29:31.982Z,93.60
2017-09-05T16:31:59.744Z,94.40
2017-09-05T16:34:27.513Z,95.20
2017-09-05T16:36:55.241Z,95.30
2017-09-05T16:45:10.202Z,95.90
2017-09-05T16:47:37.776Z,95.90
2017-09-05T16:50:05.316Z,96.20
2017-09-05T16:52:32.962Z,96.70
2017-09-05T16:55:00.572Z,97.00
2017-09-05T16:57:28.176Z,97.00
2017-09-05T16:59:55.793Z,96.80
2017-09-05T17:02:23.507Z,96.50
2017-09-05T17:04:51.177Z,96.90
2017-09-05T17:07:18.853Z,96.80
2017-09-05T17:09:48.889Z,96.30
2017-09-05T17:12:17.375Z,96.40
2017-09-05T17:14:45.728Z,96.70
2017-09-05T17:17:13.369Z,97.10
2017-09-05T17:19:40.962Z,97.90
2017-09-05T17:22:08.574Z,97.60
2017-09-05T17:24:36.363Z,97.60
2017-09-05T17:27:03.982Z,98.50
2017-09-05T17:29:31.569Z,98.70
2017-09-05T17:31:59.150Z,98.50
2017-09-05T17:34:26.813Z,98.60
2017-09-05T17:36:54.429Z,99.40
2017-09-05T17:39:23.290Z,99.30
2017-09-05T17:41:51.144Z,98.90
2017-09-05T17:44:18.913Z,99.20
2017-09-05T17:46:46.629Z,99.50
2017-09-05T17:49:14.398Z,99.00
2017-09-05T17:51:42.090Z,99.30
2017-09-05T17:54:11.067Z,98.90
2017-09-05T17:56:39.487Z,98.40
2017-09-05T17:59:07.311Z,98.60
2017-09-05T18:01:35.606Z,98.60
2017-09-05T18:04:03.236Z,98.70
2017-09-05T18:06:30.957Z,98.40
2017-09-05T18:08:58.804Z,98.60
2017-09-05T18:11:26.517Z,98.90
2017-09-05T18:13:54.396Z,98.80
2017-09-05T18:16:22.029Z,99.20
2017-09-05T18:18:49.884Z,98.50
2017-09-05T18:21:17.618Z,98.70
2017-09-05T18:23:45.422Z,99.50
2017-09-05T18:26:13.100Z,99.60
2017-09-05T18:28:40.992Z,99.50
2017-09-05T18:31:08.589Z,98.70
2017-09-05T18:33:36.345Z,99.40
2017-09-05T18:36:03.940Z,99.40
2017-09-05T18:38:31.597Z,99.80
2017-09-05T18:40:59.338Z,99.90
2017-09-05T18:43:27.108Z,99.90
2017-09-05T18:45:54.853Z,99.90
2017-09-05T18:48:22.370Z,99.90
2017-09-05T18:50:50.190Z,99.90
2017-09-05T18:53:22.620Z,99.90
2017-09-05T18:55:51.914Z,99.90
2017-09-05T18:58:19.694Z,99.90
2017-09-05T19:00:47.646Z,99.90
2017-09-05T19:03:15.574Z,99.90
2017-09-05T19:05:43.241Z,99.90
2017-09-05T19:08:10.968Z,99.90
2017-09-05T19:10:38.745Z,99.90
2017-09-05T19:13:06.371Z,99.90
2017-09-05T19:15:34.432Z,99.90
2017-09-05T19:18:02.207Z,99.90
2017-09-05T19:20:29.807Z,99.90
2017-09-05T19:22:57.379Z,99.90
2017-09-05T19:25:25.111Z,99.90
2017-09-05T19:27:52.791Z,99.90
2017-09-05T19:30:20.388Z,99.90
2017-09-05T19:32:48.064Z,99.90
2017-09-05T19:35:15.673Z,99.90
2017-09-05T19:37:43.388Z,99.90
2017-09-05T19:40:11.166Z,99.90
2017-09-05T19:42:38.836Z,99.90
2017-09-05T19:45:06.500Z,99.90
2017-09-05T19:47:34.050Z,99.90
2017-09-05T19:50:01.810Z,99.90
2017-09-05T19:52:29.540Z,99.90
2017-09-05T19:54:57.186Z,99.90
2017-09-05T19:57:24.922Z,99.90
2017-09-05T19:59:52.713Z,99.90
2017-09-05T20:02:20.318Z,99.90
2017-09-05T20:04:47.958Z,99.90
2017-09-05T20:07:15.598Z,99.90
2017-09-05T20:09:43.226Z,99.90
2017-09-05T20:12:10.857Z,99.90
2017-09-05T20:14:38.485Z,99.90
2017-09-05T20:17:06.117Z,99.90
2017-09-05T20:19:33.741Z,99.90
2017-09-05T20:22:01.526Z,99.90
2017-09-05T20:24:29.132Z,99.90
2017-09-05T20:26:56.854Z,99.90
2017-09-05T20:29:24.430Z,99.90
2017-09-05T20:31:52.071Z,99.90
2017-09-05T20:34:19.670Z,99.90
2017-09-05T20:36:47.339Z,99.90
2017-09-05T20:39:14.963Z,99.90
2017-09-05T20:41:42.582Z,99.90
2017-09-05T20:44:10.177Z,99.90
2017-09-05T20:46:38.073Z,99.90
2017-09-05T20:49:06.746Z,99.90
2017-09-05T20:51:34.396Z,99.90
2017-09-05T20:54:02.029Z,99.90
2017-09-05T20:56:29.697Z,99.90
2017-09-05T20:58:57.217Z,99.90
2017-09-05T21:01:27.730Z,99.90
2017-09-05T21:03:55.495Z,99.90
2017-09-05T21:06:23.129Z,99.90
2017-09-05T21:08:50.924Z,99.90
2017-09-05T21:11:18.523Z,99.90
2017-09-05T21:13:46.229Z,99.90
2017-09-05T21:16:14.006Z,99.90
2017-09-05T21:18:41.682Z,99.90
2017-09-05T21:21:09.363Z,99.90
2017-09-05T21:23:37.197Z,99.90
2017-09-05T21:26:05.034Z,99.90
2017-09-05T21:28:32.859Z,99.90
2017-09-05T21:31:00.487Z,99.90
2017-09-05T21:33:28.207Z,99.90
2017-09-05T21:35:55.826Z,99.90
2017-09-05T21:38:23.495Z,99.90
2017-09-05T21:40:51.121Z,99.90
2017-09-05T21:43:18.964Z,99.90
2017-09-05T21:45:46.793Z,99.90
2017-09-05T21:48:14.552Z,99.90
2017-09-05T21:50:42.233Z,99.90
2017-09-05T21:53:09.967Z,99.90
2017-09-05T21:55:37.564Z,99.90
2017-09-05T21:58:05.297Z,99.90
2017-09-05T22:00:32.933Z,99.90
2017-09-05T22:03:00.533Z,99.90
2017-09-05T22:05:28.213Z,99.90
2017-09-05T22:07:55.864Z,99.90
2017-09-05T22:10:23.536Z,99.90
2017-09-05T22:12:51.165Z,99.90
2017-09-05T22:15:24.485Z,99.90
2017-09-05T22:17:52.133Z,99.90
2017-09-05T22:20:25.422Z,99.90
2017-09-05T22:22:53.111Z,99.90
2017-09-05T22:25:26.470Z,99.90
2017-09-05T22:27:59.859Z,99.90
2017-09-05T22:30:27.557Z,99.90
2017-09-05T22:32:55.153Z,99.90
2017-09-05T22:35:22.826Z,99.90
2017-09-05T22:37:50.478Z,99.90
2017-09-05T22:40:18.162Z,99.90
2017-09-05T22:42:45.833Z,99.90
2017-09-05T22:45:13.449Z,99.90
2017-09-05T22:47:41.101Z,99.90
2017-09-05T22:50:08.707Z,99.90
2017-09-05T22:52:36.367Z,99.90
2017-09-05T22:55:04.026Z,99.90
2017-09-05T22:57:31.660Z,99.90
2017-09-05T22:59:59.357Z,99.90
2017-09-05T23:02:27.082Z,99.90
2017-09-05T23:04:54.737Z,99.90
2017-09-05T23:07:22.360Z,99.90
2017-09-05T23:09:50.026Z,99.90
2017-09-05T23:12:17.593Z,99.90
2017-09-05T23:14:45.251Z,99.90
2017-09-05T23:17:12.849Z,99.90
2017-09-05T23:19:40.573Z,99.90
2017-09-05T23:22:08.216Z,99.90
2017-09-05T23:24:35.837Z,99.90
2017-09-05T23:27:03.433Z,99.90
2017-09-05T23:29:31.113Z,99.90
2017-09-05T23:31:58.917Z,99.90
2017-09-05T23:34:26.664Z,99.90
2017-09-05T23:36:54.313Z,99.90
2017-09-05T23:39:21.898Z,99.90
2017-09-05T23:41:49.540Z,99.90
2017-09-05T23:44:17.170Z,99.90
2017-09-05T23:46:44.744Z,99.90
2017-09-05T23:49:12.405Z,99.90
2017-09-05T23:51:40.038Z,99.90
2017-09-05T23:54:07.660Z,99.90
2017-09-05T23:56:35.338Z,99.90
2017-09-05T23:59:03.001Z,99.90
